Bessemer, Michigan
Current Conditions -  °F | °C
As of 8:35 AM on Monday 22 Dec 2014 (Local Time) from KIWD Reporting Station
Overcast Overcast  
Wind Chill: -3°   Ceiling: 800
Heat Index:   Visibility: 5mi
Dew Point:   Wind: 9mph
Humidity: 100%   Direction: 130°SE
Pressure: 29.75"   Gusts: NA
Location:  46.48°N, 90.05°W
Report Text: KIWD 221435Z AUTO 13008KT 5SM OVC008 01/01 A2975 RMK AO1
Loading
Personal Weather Stations






























Interactive Weather Map New forecast layout! Learn more

10-Day Weather Forecast

Advertisements
Track Severe Weather on mobile